createdAt,value
2018-04-08T08:38:10.412Z,0.00
2018-04-08T08:39:10.310Z,0.00
2018-04-08T08:41:03.634Z,0.00
2018-04-08T08:58:31.383Z,376.88
2018-04-08T08:59:31.238Z,376.88
2018-04-08T09:01:24.675Z,382.50
2018-04-08T09:02:24.433Z,376.88
2018-04-08T09:04:17.774Z,371.25
2018-04-08T09:05:17.647Z,371.25
2018-04-08T09:07:10.986Z,376.88
2018-04-08T09:08:10.860Z,376.88
2018-04-08T09:10:04.165Z,382.50
2018-04-08T09:12:17.447Z,376.88
2018-04-08T09:13:17.329Z,376.88
2018-04-08T09:15:11.695Z,376.88
2018-04-08T09:16:11.565Z,388.13
2018-04-08T09:18:06.206Z,388.13
2018-04-08T09:19:05.798Z,388.13
2018-04-08T09:21:00.344Z,388.13
2018-04-08T09:21:59.945Z,393.75
2018-04-08T09:23:54.573Z,393.75
2018-04-08T09:24:54.164Z,393.75
2018-04-08T09:26:48.493Z,393.75
2018-04-08T09:27:48.386Z,393.75
2018-04-08T09:28:48.324Z,393.75
2018-04-08T09:29:51.030Z,393.75
2018-04-08T09:30:48.210Z,393.75
2018-04-08T09:31:48.135Z,393.75
2018-04-08T09:32:48.211Z,393.75
2018-04-08T09:33:48.544Z,393.75
2018-04-08T09:34:47.958Z,393.75
2018-04-08T09:35:47.891Z,399.38
2018-04-08T09:36:47.829Z,399.38
2018-04-08T09:37:47.766Z,399.38
2018-04-08T09:38:47.701Z,399.38
2018-04-08T09:39:47.638Z,399.38
2018-04-08T09:40:47.578Z,399.38
2018-04-08T09:41:47.515Z,405.00
2018-04-08T09:42:47.463Z,405.00
2018-04-08T09:43:47.408Z,405.00
2018-04-08T09:44:47.332Z,405.00
2018-04-08T09:45:47.267Z,405.00
2018-04-08T09:46:47.206Z,405.00
2018-04-08T09:47:47.181Z,405.00
2018-04-08T09:48:47.100Z,405.00
2018-04-08T09:49:47.037Z,410.63
2018-04-08T09:50:46.965Z,410.63
2018-04-08T09:51:46.905Z,410.63
2018-04-08T09:52:46.836Z,410.63
2018-04-08T09:53:46.786Z,416.25
2018-04-08T09:54:46.788Z,421.88
2018-04-08T09:55:46.677Z,416.25
2018-04-08T09:56:46.987Z,416.25
2018-04-08T09:57:46.526Z,416.25
2018-04-08T09:58:46.467Z,416.25
2018-04-08T09:59:46.407Z,416.25
2018-04-08T10:00:46.350Z,416.25
2018-04-08T10:01:46.286Z,421.88
2018-04-08T10:02:46.227Z,421.88
2018-04-08T10:03:46.161Z,421.88
2018-04-08T10:04:46.106Z,421.88
2018-04-08T10:05:46.036Z,427.50
2018-04-08T10:06:45.975Z,427.50
2018-04-08T10:07:45.933Z,427.50
2018-04-08T10:08:45.854Z,427.50
2018-04-08T10:09:45.796Z,433.13
2018-04-08T10:10:45.747Z,427.50
2018-04-08T10:11:45.686Z,427.50
2018-04-08T10:12:45.620Z,427.50
2018-04-08T10:13:45.575Z,438.75
2018-04-08T10:14:45.509Z,433.13
2018-04-08T10:15:45.426Z,433.13
2018-04-08T10:16:45.380Z,438.75
2018-04-08T10:17:45.337Z,438.75
2018-04-08T10:18:45.238Z,438.75
2018-04-08T10:19:45.189Z,438.75
2018-04-08T10:20:45.169Z,444.38
2018-04-08T10:21:45.079Z,444.38
2018-04-08T10:22:45.005Z,444.38
2018-04-08T10:23:44.945Z,444.38
2018-04-08T10:24:44.927Z,444.38
2018-04-08T10:25:44.843Z,450.00
2018-04-08T10:26:44.756Z,450.00
2018-04-08T10:27:44.742Z,450.00
2018-04-08T10:28:44.640Z,455.63
2018-04-08T10:29:44.568Z,455.63
2018-04-08T10:30:44.509Z,455.63
2018-04-08T10:31:44.446Z,455.63
2018-04-08T10:32:44.390Z,455.63
2018-04-08T10:33:44.350Z,455.63
2018-04-08T10:34:44.268Z,455.63
2018-04-08T10:35:45.081Z,455.63
2018-04-08T10:36:44.173Z,461.25
2018-04-08T10:37:44.113Z,461.25
2018-04-08T10:38:44.052Z,461.25
2018-04-08T10:39:43.996Z,461.25
2018-04-08T10:40:43.958Z,461.25
2018-04-08T10:41:43.883Z,466.88
2018-04-08T10:42:43.806Z,466.88
2018-04-08T10:43:44.585Z,466.88
2018-04-08T10:44:43.738Z,472.50
2018-04-08T10:45:43.666Z,472.50
2018-04-08T10:46:43.549Z,478.13
2018-04-08T10:47:43.495Z,478.13
2018-04-08T10:48:43.408Z,483.75
2018-04-08T10:49:43.377Z,483.75
2018-04-08T10:50:43.291Z,483.75
2018-04-08T10:51:43.232Z,489.38
2018-04-08T10:52:43.183Z,495.00
2018-04-08T10:53:43.108Z,506.25
2018-04-08T10:54:43.051Z,511.88
2018-04-08T10:55:42.994Z,511.88
2018-04-08T10:56:42.926Z,517.50
2018-04-08T10:57:42.899Z,517.50
2018-04-08T10:58:42.820Z,523.13
2018-04-08T10:59:42.744Z,528.75
2018-04-08T11:00:42.685Z,540.00
2018-04-08T11:01:42.628Z,545.63
2018-04-08T11:02:42.615Z,551.25
2018-04-08T11:03:42.503Z,556.88
2018-04-08T11:04:42.466Z,556.88
2018-04-08T11:05:42.392Z,562.50
2018-04-08T11:06:42.335Z,568.13
2018-04-08T11:07:42.276Z,568.13
2018-04-08T11:08:51.021Z,579.38
2018-04-08T11:10:35.646Z,590.63
2018-04-08T11:11:35.440Z,596.25
2018-04-08T11:13:30.385Z,601.88
2018-04-08T11:14:29.679Z,607.50
2018-04-08T11:16:23.072Z,618.75
2018-04-08T11:17:22.981Z,630.00
2018-04-08T11:19:16.240Z,641.25
2018-04-08T11:20:16.171Z,646.88
2018-04-08T11:21:16.094Z,658.13
2018-04-08T11:22:16.047Z,663.75
2018-04-08T11:23:15.980Z,669.38
2018-04-08T11:24:15.987Z,680.63
2018-04-08T11:25:16.099Z,731.25
2018-04-08T11:26:15.824Z,1693.13
2018-04-08T11:27:15.757Z,3211.88
2018-04-08T11:28:15.716Z,3532.50
2018-04-08T11:29:15.646Z,3650.63
2018-04-08T11:30:15.611Z,3751.88
2018-04-08T11:31:15.560Z,3841.88
2018-04-08T11:32:15.492Z,3898.13
2018-04-08T11:33:15.445Z,3915.00
2018-04-08T11:34:15.385Z,3864.38
2018-04-08T11:35:15.354Z,3819.38
2018-04-08T11:36:15.288Z,3690.00
2018-04-08T11:37:15.226Z,3594.38
2018-04-08T11:38:15.191Z,3476.25
2018-04-08T11:39:15.163Z,3397.50
2018-04-08T11:40:15.464Z,3369.38
2018-04-08T11:41:15.174Z,3431.25
2018-04-08T11:42:14.974Z,3487.50
2018-04-08T11:43:14.953Z,3555.00
2018-04-08T11:44:14.867Z,3656.25
2018-04-08T11:45:14.813Z,3746.25
2018-04-08T11:46:14.783Z,3847.50
2018-04-08T11:47:14.752Z,3858.75
2018-04-08T11:48:14.659Z,3920.63
2018-04-08T11:49:14.613Z,3931.88
2018-04-08T11:50:14.577Z,3903.75
2018-04-08T11:51:14.524Z,3813.75
2018-04-08T11:52:14.467Z,3735.00
2018-04-08T11:53:14.428Z,3645.00
2018-04-08T11:54:14.372Z,3566.25
2018-04-08T11:55:14.322Z,3498.75
2018-04-08T11:56:22.075Z,3487.50
2018-04-08T11:58:07.619Z,3622.50
2018-04-08T11:59:07.536Z,3656.25
2018-04-08T12:01:01.087Z,3611.25
2018-04-08T12:02:00.881Z,3543.75
2018-04-08T12:03:54.198Z,3481.88
2018-04-08T12:04:54.137Z,3493.13
2018-04-08T12:05:54.049Z,3532.50
2018-04-08T12:06:54.012Z,3588.75
2018-04-08T12:07:53.940Z,3628.13
2018-04-08T12:08:53.924Z,3656.25
2018-04-08T12:09:53.858Z,3695.63
2018-04-08T12:10:53.838Z,3645.00
2018-04-08T12:11:53.779Z,3645.00
2018-04-08T12:12:53.748Z,3650.63
2018-04-08T12:13:53.663Z,3661.88
2018-04-08T12:14:53.618Z,3678.75
2018-04-08T12:15:53.568Z,3729.38
2018-04-08T12:16:53.548Z,3768.75
2018-04-08T12:17:53.494Z,3802.50
2018-04-08T12:18:53.487Z,3853.13
2018-04-08T12:19:53.408Z,3909.38
2018-04-08T12:20:53.342Z,3988.13
2018-04-08T12:21:53.307Z,4038.75
2018-04-08T12:22:53.273Z,4044.38
2018-04-08T12:23:53.814Z,4021.88
2018-04-08T12:24:53.457Z,3915.00
2018-04-08T12:25:53.121Z,3830.63
2018-04-08T12:26:53.088Z,3701.25
2018-04-08T12:27:53.039Z,3605.63
2018-04-08T12:28:53.004Z,3521.25
2018-04-08T12:29:52.942Z,3436.88
2018-04-08T12:30:52.896Z,3453.75
2018-04-08T12:31:52.855Z,3465.00
2018-04-08T12:32:52.804Z,3560.63
2018-04-08T12:33:52.790Z,3594.38
2018-04-08T12:34:52.713Z,3656.25
2018-04-08T12:35:52.687Z,3690.00
2018-04-08T12:36:52.619Z,3729.38
2018-04-08T12:37:52.586Z,3808.13
2018-04-08T12:38:52.533Z,3808.13
2018-04-08T12:39:52.492Z,3903.75
2018-04-08T12:40:52.445Z,3909.38
2018-04-08T12:41:52.402Z,3898.13
2018-04-08T12:42:52.366Z,3858.75
2018-04-08T12:43:52.319Z,3791.25
2018-04-08T12:44:52.269Z,3723.75
2018-04-08T12:45:52.225Z,3605.63
2018-04-08T12:46:52.176Z,3549.38
2018-04-08T12:47:52.177Z,3510.00
2018-04-08T12:48:52.087Z,3594.38
2018-04-08T12:49:52.050Z,3667.50
2018-04-08T12:50:52.005Z,3808.13
2018-04-08T12:51:51.991Z,3830.63
2018-04-08T12:52:51.910Z,3892.50
2018-04-08T12:53:51.880Z,3909.38
2018-04-08T12:54:51.832Z,3937.50
2018-04-08T12:55:51.788Z,3988.13
2018-04-08T12:56:51.752Z,4021.88
2018-04-08T12:57:51.688Z,4016.25
2018-04-08T12:58:51.649Z,3993.75
2018-04-08T12:59:51.610Z,3954.38
2018-04-08T13:00:51.581Z,3892.50
2018-04-08T13:01:51.529Z,3841.88
2018-04-08T13:02:51.469Z,3780.00
2018-04-08T13:03:51.449Z,3661.88
2018-04-08T13:04:51.457Z,3571.88
2018-04-08T13:05:51.346Z,3577.50
2018-04-08T13:06:51.293Z,3650.63
2018-04-08T13:07:51.267Z,3808.13
2018-04-08T13:08:51.205Z,3960.00
2018-04-08T13:09:51.185Z,4072.50
2018-04-08T13:10:51.121Z,4123.13
2018-04-08T13:11:51.071Z,4151.25
2018-04-08T13:12:51.038Z,4156.88
2018-04-08T13:13:50.998Z,4173.75
2018-04-08T13:14:50.945Z,4145.63
2018-04-08T13:15:50.912Z,4162.50
2018-04-08T13:16:50.861Z,4123.13
2018-04-08T13:17:50.814Z,4128.75
2018-04-08T13:18:50.768Z,4061.25
2018-04-08T13:19:50.727Z,3948.75
2018-04-08T13:20:50.685Z,3830.63
2018-04-08T13:21:50.649Z,3690.00
2018-04-08T13:22:50.601Z,3650.63
2018-04-08T13:23:50.570Z,3594.38
2018-04-08T13:24:50.537Z,3645.00
2018-04-08T13:25:50.463Z,3802.50
2018-04-08T13:26:50.433Z,3931.88
2018-04-08T13:27:50.380Z,3931.88
2018-04-08T13:28:50.333Z,3937.50
2018-04-08T13:29:50.287Z,3976.88
2018-04-08T13:30:50.257Z,4010.63
2018-04-08T13:31:50.200Z,4005.00
2018-04-08T13:32:50.158Z,3976.88
2018-04-08T13:33:50.119Z,3960.00
2018-04-08T13:34:50.120Z,3976.88
2018-04-08T13:35:50.030Z,3915.00
2018-04-08T13:36:49.994Z,3886.88
2018-04-08T13:37:49.941Z,3830.63
2018-04-08T13:38:49.895Z,3706.88
2018-04-08T13:39:49.851Z,3566.25
2018-04-08T13:40:49.809Z,3487.50
2018-04-08T13:41:49.794Z,3515.63
2018-04-08T13:42:49.726Z,3566.25
2018-04-08T13:43:49.682Z,3667.50
2018-04-08T13:44:49.637Z,3712.50
2018-04-08T13:45:49.604Z,3740.63
2018-04-08T13:46:49.551Z,3768.75
2018-04-08T13:47:49.514Z,3746.25
2018-04-08T13:48:49.467Z,3768.75
2018-04-08T13:49:49.420Z,3774.38
2018-04-08T13:50:49.399Z,3740.63
2018-04-08T13:51:49.335Z,3735.00
2018-04-08T13:52:49.287Z,3706.88
2018-04-08T13:53:49.268Z,3690.00
2018-04-08T13:54:49.213Z,3645.00
2018-04-08T13:55:49.163Z,3560.63
2018-04-08T13:56:49.140Z,3487.50
2018-04-08T13:57:49.082Z,3420.00
2018-04-08T13:58:49.075Z,3391.88
2018-04-08T13:59:48.998Z,3346.88
2018-04-08T14:00:48.958Z,3363.75
2018-04-08T14:01:48.909Z,3425.63
2018-04-08T14:02:48.882Z,3504.38
2018-04-08T14:03:48.828Z,3526.88
2018-04-08T14:04:48.814Z,3470.63
2018-04-08T14:05:48.750Z,3532.50
2018-04-08T14:06:48.799Z,3532.50
2018-04-08T14:07:48.709Z,3526.88
2018-04-08T14:08:48.633Z,3498.75
2018-04-08T14:09:48.569Z,3493.13
2018-04-08T14:10:48.538Z,3498.75
2018-04-08T14:11:48.532Z,3465.00
2018-04-08T14:12:48.433Z,3442.50
2018-04-08T14:13:48.388Z,3211.88
2018-04-08T14:14:48.366Z,3172.50
2018-04-08T14:15:48.298Z,3161.25
2018-04-08T14:16:48.264Z,3121.88
2018-04-08T14:17:48.208Z,3099.38
2018-04-08T14:18:48.182Z,3099.38
2018-04-08T14:19:48.119Z,3116.25
2018-04-08T14:20:48.077Z,3065.63
2018-04-08T14:21:48.036Z,3105.00
2018-04-08T14:22:47.983Z,3127.50
2018-04-08T14:23:47.955Z,3178.13
2018-04-08T14:24:47.903Z,3127.50
2018-04-08T14:25:47.856Z,3138.75
2018-04-08T14:26:47.820Z,3144.38
2018-04-08T14:27:47.774Z,3093.75
2018-04-08T14:28:47.721Z,3026.25
2018-04-08T14:29:47.683Z,2998.13
2018-04-08T14:30:47.645Z,2896.88
2018-04-08T14:31:47.592Z,2835.00
2018-04-08T14:32:47.550Z,2733.75
2018-04-08T14:33:47.510Z,2683.13
2018-04-08T14:34:47.462Z,2756.25
2018-04-08T14:35:47.416Z,2694.38
2018-04-08T14:36:47.416Z,2857.50
2018-04-08T14:37:47.338Z,2857.50
2018-04-08T14:38:47.312Z,2868.75
2018-04-08T14:39:47.240Z,2896.88
2018-04-08T14:40:47.202Z,2930.63
2018-04-08T14:41:47.174Z,2908.13
2018-04-08T14:42:47.126Z,2902.50
2018-04-08T14:43:47.067Z,2998.13
2018-04-08T14:44:47.031Z,2970.00
2018-04-08T14:45:46.976Z,2964.38
2018-04-08T14:46:46.927Z,2947.50
2018-04-08T14:47:46.915Z,2851.88
2018-04-08T14:48:46.848Z,2773.13
2018-04-08T14:49:46.796Z,2711.25
2018-04-08T14:50:46.781Z,2660.63
2018-04-08T14:51:46.723Z,2643.75
2018-04-08T14:52:46.671Z,2660.63
2018-04-08T14:53:46.622Z,2677.50
2018-04-08T14:54:46.578Z,2733.75
2018-04-08T14:55:46.528Z,2716.88
2018-04-08T14:56:46.501Z,2711.25
2018-04-08T14:57:46.437Z,2463.75
2018-04-08T14:58:46.404Z,1923.75
2018-04-08T14:59:46.346Z,1608.75
2018-04-08T15:00:46.586Z,1507.50
2018-04-08T15:01:46.799Z,1186.88
2018-04-08T15:02:46.242Z,871.88
2018-04-08T15:03:46.201Z,849.38
2018-04-08T15:04:46.160Z,1119.38
2018-04-08T15:05:46.088Z,956.25
2018-04-08T15:06:46.050Z,725.63
2018-04-08T15:07:45.997Z,720.00
2018-04-08T15:08:45.936Z,703.13
2018-04-08T15:09:51.090Z,691.88
2018-04-08T15:10:45.848Z,691.88
2018-04-08T15:11:45.799Z,691.88
2018-04-08T15:12:45.790Z,680.63
2018-04-08T15:13:59.867Z,675.00
2018-04-08T15:14:45.698Z,675.00
2018-04-08T15:15:45.624Z,680.63
2018-04-08T15:16:45.549Z,680.63
2018-04-08T15:17:45.533Z,669.38
2018-04-08T15:18:45.747Z,663.75
2018-04-08T15:19:45.405Z,658.13
2018-04-08T15:20:45.351Z,658.13
2018-04-08T15:21:45.299Z,652.50
2018-04-08T15:22:45.257Z,652.50
2018-04-08T15:23:45.214Z,641.25
2018-04-08T15:24:46.465Z,635.63
2018-04-08T15:25:47.966Z,630.00
2018-04-08T15:26:45.286Z,618.75
2018-04-08T15:27:45.680Z,624.38
2018-04-08T15:28:45.698Z,613.13
2018-04-08T15:29:46.237Z,613.13
2018-04-08T15:30:44.837Z,607.50
2018-04-08T15:31:44.799Z,607.50
2018-04-08T15:32:45.083Z,607.50
2018-04-08T15:33:45.760Z,607.50
2018-04-08T15:34:46.334Z,601.88
2018-04-08T15:35:44.565Z,596.25
2018-04-08T15:36:44.526Z,590.63
2018-04-08T15:37:44.470Z,590.63
2018-04-08T15:38:44.459Z,590.63
2018-04-08T15:39:44.363Z,585.00
2018-04-08T15:40:44.315Z,585.00
2018-04-08T15:41:44.251Z,579.38
2018-04-08T15:42:44.197Z,573.75
2018-04-08T15:43:44.175Z,568.13
2018-04-08T15:44:44.080Z,568.13
2018-04-08T15:45:44.054Z,562.50
2018-04-08T15:46:43.994Z,562.50
2018-04-08T15:47:43.930Z,556.88
2018-04-08T15:48:43.889Z,551.25
2018-04-08T15:49:44.811Z,551.25
2018-04-08T15:50:43.807Z,545.63
2018-04-08T15:51:43.717Z,545.63
2018-04-08T15:52:43.652Z,545.63
2018-04-08T15:53:43.625Z,540.00
2018-04-08T15:54:43.540Z,534.38
2018-04-08T15:55:43.483Z,528.75
2018-04-08T15:56:43.428Z,523.13
2018-04-08T15:57:43.383Z,517.50
2018-04-08T15:58:43.324Z,517.50
2018-04-08T15:59:43.269Z,511.88
2018-04-08T16:00:43.231Z,506.25
2018-04-08T16:01:43.163Z,506.25
2018-04-08T16:02:43.107Z,500.63
2018-04-08T16:03:43.050Z,495.00
2018-04-08T16:04:42.988Z,495.00
2018-04-08T16:05:42.937Z,489.38
2018-04-08T16:06:42.884Z,489.38
2018-04-08T16:07:42.827Z,483.75
2018-04-08T16:08:42.771Z,478.13
2018-04-08T16:09:42.724Z,472.50
2018-04-08T16:10:42.678Z,466.88
2018-04-08T16:11:42.616Z,461.25
2018-04-08T16:12:42.563Z,455.63
2018-04-08T16:13:42.496Z,450.00
2018-04-08T16:14:42.442Z,444.38
2018-04-08T16:15:42.387Z,444.38
2018-04-08T16:16:42.340Z,438.75
2018-04-08T16:17:42.287Z,433.13
2018-04-08T16:18:42.227Z,433.13
2018-04-08T16:19:42.166Z,427.50
2018-04-08T16:20:42.109Z,421.88
2018-04-08T16:21:42.054Z,416.25
2018-04-08T16:22:41.997Z,410.63
2018-04-08T16:23:41.949Z,405.00
2018-04-08T16:24:41.896Z,399.38
2018-04-08T16:25:42.847Z,399.38
2018-04-08T16:26:41.777Z,393.75
2018-04-08T16:27:41.776Z,388.13
2018-04-08T16:28:41.665Z,382.50
2018-04-08T16:29:42.385Z,376.88
2018-04-08T16:30:41.562Z,371.25
2018-04-08T16:31:41.555Z,371.25
2018-04-08T16:32:41.489Z,365.63
2018-04-08T16:33:41.398Z,360.00
2018-04-08T16:34:41.347Z,354.38
2018-04-08T16:35:41.276Z,348.75
2018-04-08T16:36:41.280Z,343.13
2018-04-08T16:37:41.176Z,337.50
2018-04-08T16:38:41.119Z,331.88
2018-04-08T16:39:41.050Z,326.25
2018-04-08T16:40:40.997Z,320.63
2018-04-08T16:41:40.961Z,315.00
2018-04-08T16:42:40.926Z,309.38
2018-04-08T16:43:40.919Z,303.75
2018-04-08T16:44:40.785Z,303.75
2018-04-08T16:45:40.740Z,298.13
2018-04-08T16:46:40.745Z,292.50
2018-04-08T16:47:40.671Z,286.88
2018-04-08T16:48:40.757Z,281.25
2018-04-08T16:49:40.490Z,275.63
2018-04-08T16:50:40.548Z,270.00
2018-04-08T16:51:40.425Z,270.00
2018-04-08T16:52:40.323Z,264.38
2018-04-08T16:53:40.312Z,258.75
2018-04-08T16:54:40.204Z,247.50
2018-04-08T16:55:40.163Z,241.88
2018-04-08T16:56:40.410Z,236.25
2018-04-08T16:57:40.095Z,230.63
2018-04-08T16:58:39.977Z,225.00
2018-04-08T16:59:39.940Z,219.38
2018-04-08T17:00:39.856Z,213.75
2018-04-08T17:01:39.803Z,208.13
2018-04-08T17:02:39.750Z,202.50
2018-04-08T17:03:39.724Z,196.88
2018-04-08T17:04:39.630Z,191.25
2018-04-08T17:05:39.566Z,185.63
2018-04-08T17:06:39.524Z,185.63
2018-04-08T17:07:39.463Z,180.00
2018-04-08T17:08:39.397Z,174.38
2018-04-08T17:09:39.350Z,168.75
2018-04-08T17:10:39.297Z,163.13
2018-04-08T17:11:39.245Z,163.13
2018-04-08T17:12:39.196Z,157.50
2018-04-08T17:13:39.129Z,157.50
2018-04-08T17:14:39.268Z,151.88
2018-04-08T17:15:39.197Z,146.25
2018-04-08T17:16:38.953Z,146.25
2018-04-08T17:17:39.106Z,140.63
2018-04-08T17:18:38.838Z,135.00
2018-04-08T17:19:38.901Z,129.38
2018-04-08T17:20:38.769Z,123.75
2018-04-08T17:21:38.663Z,123.75
2018-04-08T17:22:38.813Z,118.13
2018-04-08T17:23:38.657Z,112.50
2018-04-08T17:24:38.675Z,106.88
2018-04-08T17:25:38.461Z,106.88
2018-04-08T17:26:38.365Z,101.25
2018-04-08T17:27:38.327Z,95.63
2018-04-08T17:28:38.491Z,95.63
2018-04-08T17:29:38.208Z,90.00
2018-04-08T17:30:38.129Z,84.38
2018-04-08T17:31:38.089Z,84.38
2018-04-08T17:32:38.018Z,78.75
2018-04-08T17:33:37.988Z,73.13
2018-04-08T17:34:37.907Z,73.13
2018-04-08T17:35:37.858Z,67.50
2018-04-08T17:36:37.791Z,67.50
2018-04-08T17:37:37.728Z,61.88
2018-04-08T17:38:37.695Z,61.88
2018-04-08T17:39:37.611Z,56.25
2018-04-08T17:40:37.562Z,56.25
2018-04-08T17:41:37.498Z,50.63
2018-04-08T17:42:37.658Z,50.63
2018-04-08T17:43:37.382Z,45.00
2018-04-08T17:44:37.317Z,45.00
2018-04-08T17:45:37.334Z,39.38
2018-04-08T17:46:37.356Z,39.38
2018-04-08T17:47:37.498Z,33.75
2018-04-08T17:49:37.022Z,28.13
2018-04-08T17:50:36.991Z,28.13
2018-04-08T17:51:36.974Z,22.50
2018-04-08T17:52:36.863Z,22.50
2018-04-08T17:53:36.818Z,22.50
2018-04-08T17:54:36.807Z,16.88
2018-04-08T17:55:36.765Z,16.88
2018-04-08T17:56:36.658Z,16.88
2018-04-08T17:57:36.574Z,11.25
2018-04-08T17:58:36.522Z,11.25
2018-04-08T17:59:36.656Z,11.25
2018-04-08T18:00:36.378Z,11.25
2018-04-08T18:01:36.318Z,5.63
2018-04-08T18:02:36.267Z,5.63
2018-04-08T18:03:36.221Z,5.63
2018-04-08T18:04:36.870Z,5.63
2018-04-08T18:05:36.938Z,5.63
2018-04-08T18:06:36.028Z,0.00
2018-04-08T18:07:36.016Z,0.00
2018-04-08T18:08:35.933Z,0.00
2018-04-08T18:09:36.035Z,0.00
2018-04-08T18:10:35.798Z,0.00
2018-04-08T18:11:35.728Z,0.00
2018-04-08T18:12:35.702Z,0.00
2018-04-08T18:13:35.799Z,0.00
2018-04-08T18:14:35.555Z,0.00
2018-04-08T18:15:35.493Z,0.00
2018-04-08T18:16:35.438Z,0.00
2018-04-08T18:17:35.576Z,0.00
2018-04-08T18:18:35.330Z,0.00
2018-04-08T18:19:35.258Z,0.00
2018-04-08T18:20:35.272Z,0.00
2018-04-08T18:21:35.144Z,0.00
2018-04-08T18:22:35.080Z,0.00
2018-04-08T18:23:35.844Z,0.00
2018-04-08T18:24:34.978Z,0.00
2018-04-08T18:25:34.902Z,0.00
2018-04-08T18:26:35.566Z,0.00
2018-04-08T18:27:34.814Z,0.00
2018-04-08T18:28:34.763Z,0.00
2018-04-08T18:29:34.756Z,0.00
2018-04-08T18:30:34.717Z,0.00
2018-04-08T18:31:34.545Z,0.00
2018-04-08T18:32:34.488Z,0.00
2018-04-08T18:33:34.445Z,0.00
2018-04-08T18:34:34.369Z,0.00
2018-04-08T18:35:34.507Z,0.00
2018-04-08T18:36:34.254Z,0.00
2018-04-08T18:37:34.400Z,0.00
2018-04-08T18:38:34.185Z,0.00
2018-04-08T18:39:35.024Z,0.00
2018-04-08T18:40:34.244Z,0.00
2018-04-08T18:41:34.160Z,0.00
2018-04-08T18:42:33.928Z,0.00
2018-04-08T18:43:36.392Z,0.00
2018-04-08T18:44:33.987Z,0.00
2018-04-08T18:45:34.416Z,0.00
2018-04-08T18:46:33.842Z,0.00
2018-04-08T18:47:33.593Z,0.00
2018-04-08T18:48:33.773Z,0.00
2018-04-08T18:49:33.478Z,0.00
2018-04-08T18:50:33.636Z,0.00
2018-04-08T18:51:33.397Z,0.00
2018-04-08T18:52:34.083Z,0.00
2018-04-08T18:53:33.257Z,0.00
2018-04-08T18:54:33.373Z,0.00
2018-04-08T18:55:33.268Z,0.00
2018-04-08T18:56:33.073Z,0.00
2018-04-08T18:57:33.499Z,0.00
2018-04-08T18:58:32.954Z,0.00
2018-04-08T18:59:32.909Z,0.00
2018-04-08T19:00:32.997Z,0.00
2018-04-08T19:01:32.752Z,0.00
2018-04-08T19:02:32.698Z,0.00
2018-04-08T19:03:32.629Z,0.00
2018-04-08T19:04:32.738Z,0.00
2018-04-08T19:05:32.546Z,0.00
2018-04-08T19:06:32.446Z,0.00
2018-04-08T19:07:32.443Z,0.00
2018-04-08T19:08:32.343Z,0.00
2018-04-08T19:09:32.296Z,0.00
2018-04-08T19:10:32.222Z,0.00
2018-04-08T19:11:32.169Z,0.00
2018-04-08T19:12:32.162Z,0.00
2018-04-08T19:13:32.049Z,0.00
2018-04-08T19:14:31.989Z,0.00
2018-04-08T19:15:31.907Z,0.00
2018-04-08T19:16:31.873Z,0.00
2018-04-08T19:17:31.785Z,0.00
2018-04-08T19:18:32.491Z,0.00
2018-04-08T19:19:31.679Z,0.00
2018-04-08T19:20:31.602Z,0.00
2018-04-08T19:21:31.554Z,0.00
2018-04-08T19:22:31.826Z,0.00
2018-04-08T19:23:31.425Z,0.00
2018-04-08T19:24:31.375Z,0.00
2018-04-08T19:25:31.438Z,0.00
2018-04-08T19:26:31.246Z,0.00
2018-04-08T19:27:31.187Z,0.00
2018-04-08T19:28:31.121Z,0.00
2018-04-08T19:29:31.113Z,0.00
2018-04-08T19:30:31.004Z,0.00
2018-04-08T19:31:30.943Z,0.00
2018-04-08T19:32:30.902Z,0.00
2018-04-08T19:33:30.828Z,0.00
2018-04-08T19:34:30.782Z,0.00
2018-04-08T19:35:30.706Z,0.00
2018-04-08T19:36:30.649Z,0.00
2018-04-08T19:37:30.646Z,0.00
2018-04-08T19:38:30.694Z,0.00
2018-04-08T19:39:30.466Z,0.00
2018-04-08T19:40:30.406Z,0.00
2018-04-08T19:41:41.285Z,0.00
2018-04-08T19:43:27.031Z,0.00
2018-04-08T19:44:26.817Z,0.00
2018-04-08T19:46:21.163Z,0.00
2018-04-08T19:47:21.064Z,0.00
2018-04-08T19:49:23.559Z,0.00
2018-04-08T19:50:22.083Z,0.00
2018-04-08T19:51:23.428Z,0.00
2018-04-08T19:52:23.255Z,0.00
2018-04-08T19:53:21.898Z,0.00
2018-04-08T19:54:21.811Z,0.00
2018-04-08T19:55:21.799Z,0.00
2018-04-08T19:56:21.716Z,0.00
2018-04-08T19:57:21.641Z,0.00
2018-04-08T19:58:28.532Z,0.00
2018-04-08T19:59:21.531Z,0.00
2018-04-08T20:00:21.442Z,0.00
2018-04-08T20:01:21.425Z,0.00
2018-04-08T20:02:21.360Z,0.00
2018-04-08T20:03:21.315Z,0.00
2018-04-08T20:04:21.270Z,0.00
2018-04-08T20:05:21.193Z,0.00
2018-04-08T20:06:21.075Z,0.00
2018-04-08T20:07:21.027Z,0.00
2018-04-08T20:08:20.974Z,0.00
2018-04-08T20:09:20.898Z,0.00
2018-04-08T20:10:21.746Z,0.00
2018-04-08T20:11:20.783Z,0.00
2018-04-08T20:12:20.709Z,0.00
2018-04-08T20:13:20.660Z,0.00
2018-04-08T20:14:20.599Z,0.00
2018-04-08T20:15:20.544Z,0.00
2018-04-08T20:16:20.474Z,0.00
2018-04-08T20:17:20.405Z,0.00
2018-04-08T20:18:20.344Z,0.00
2018-04-08T20:19:20.289Z,0.00
2018-04-08T20:20:20.227Z,0.00
2018-04-08T20:21:20.175Z,0.00
2018-04-08T20:22:20.110Z,0.00
2018-04-08T20:23:20.056Z,0.00
2018-04-08T20:24:19.982Z,0.00
2018-04-08T20:25:19.921Z,0.00
2018-04-08T20:26:19.857Z,0.00
2018-04-08T20:27:19.806Z,0.00
2018-04-08T20:28:19.741Z,0.00
2018-04-08T20:29:19.678Z,0.00
2018-04-08T20:30:19.608Z,0.00
2018-04-08T20:31:19.566Z,0.00
2018-04-08T20:32:19.511Z,0.00
2018-04-08T20:33:19.448Z,0.00
2018-04-08T20:34:19.426Z,0.00
2018-04-08T20:35:19.308Z,0.00
2018-04-08T20:36:19.248Z,0.00
2018-04-08T20:37:19.222Z,0.00
2018-04-08T20:38:19.119Z,0.00
2018-04-08T20:39:19.089Z,0.00
2018-04-08T20:40:19.065Z,0.00
2018-04-08T20:41:19.752Z,0.00
2018-04-08T20:42:18.893Z,0.00
2018-04-08T20:43:18.824Z,0.00
2018-04-08T20:44:18.788Z,0.00
2018-04-08T20:45:18.688Z,0.00
2018-04-08T20:46:18.628Z,0.00
2018-04-08T20:47:18.625Z,0.00
2018-04-08T20:48:18.506Z,0.00
2018-04-08T20:49:18.467Z,0.00
2018-04-08T20:50:18.397Z,0.00
2018-04-08T20:51:18.434Z,0.00
2018-04-08T20:52:18.254Z,0.00
2018-04-08T20:53:18.203Z,0.00
2018-04-08T20:54:18.158Z,0.00
2018-04-08T20:55:18.077Z,0.00
2018-04-08T20:56:18.047Z,0.00
2018-04-08T20:57:17.977Z,0.00
2018-04-08T20:58:17.919Z,0.00
2018-04-08T20:59:17.826Z,0.00
2018-04-08T21:00:17.801Z,0.00
2018-04-08T21:01:17.737Z,0.00
2018-04-08T21:02:17.637Z,0.00
2018-04-08T21:03:17.577Z,0.00
2018-04-08T21:04:17.515Z,0.00
2018-04-08T21:05:17.455Z,0.00
2018-04-08T21:06:17.394Z,0.00
2018-04-08T21:07:17.335Z,0.00
2018-04-08T21:08:17.269Z,0.00
2018-04-08T21:09:17.210Z,0.00
2018-04-08T21:10:17.759Z,0.00
2018-04-08T21:11:17.082Z,0.00
2018-04-08T21:12:17.022Z,0.00
2018-04-08T21:13:16.962Z,0.00
2018-04-08T21:14:16.894Z,0.00
2018-04-08T21:15:17.026Z,0.00
2018-04-08T21:16:16.770Z,0.00
2018-04-08T21:17:16.708Z,0.00
2018-04-08T21:18:16.646Z,0.00
2018-04-08T21:19:16.594Z,0.00
2018-04-08T21:20:16.528Z,0.00
2018-04-08T21:21:16.462Z,0.00
2018-04-08T21:22:16.417Z,0.00
2018-04-08T21:23:16.346Z,0.00
2018-04-08T21:24:16.278Z,0.00
2018-04-08T21:25:16.212Z,0.00
2018-04-08T21:26:16.155Z,0.00
2018-04-08T21:27:16.099Z,0.00
2018-04-08T21:28:16.023Z,0.00
2018-04-08T21:29:16.768Z,0.00
2018-04-08T21:30:15.899Z,0.00
2018-04-08T21:31:15.842Z,0.00
2018-04-08T21:32:15.784Z,0.00
2018-04-08T21:33:15.719Z,0.00
2018-04-08T21:34:15.649Z,0.00
2018-04-08T21:35:15.591Z,0.00
2018-04-08T21:36:15.526Z,0.00
2018-04-08T21:37:15.466Z,0.00
2018-04-08T21:38:15.403Z,0.00
2018-04-08T21:39:15.343Z,0.00
2018-04-08T21:40:15.276Z,0.00
2018-04-08T21:41:15.216Z,0.00
2018-04-08T21:42:15.154Z,0.00
2018-04-08T21:43:15.096Z,0.00
2018-04-08T21:44:15.064Z,0.00
2018-04-08T21:45:14.985Z,0.00
2018-04-08T21:46:14.921Z,0.00
2018-04-08T21:47:14.896Z,0.00
2018-04-08T21:48:14.778Z,0.00
2018-04-08T21:49:14.715Z,0.00
2018-04-08T21:50:14.654Z,0.00
2018-04-08T21:51:14.594Z,0.00